sensor_id;sensor_type;location;lat;lon;timestamp;temperature;humidity
49441;DHT22;35317;51.978;6.296;2022-08-19T00:03:21;18.20;97.70
49441;DHT22;35317;51.978;6.296;2022-08-19T00:08:22;18.20;97.70
49441;DHT22;35317;51.978;6.296;2022-08-19T00:13:22;18.10;97.80
49441;DHT22;35317;51.978;6.296;2022-08-19T00:18:23;18.00;97.90
49441;DHT22;35317;51.978;6.296;2022-08-19T00:23:24;18.00;98.00
49441;DHT22;35317;51.978;6.296;2022-08-19T00:28:25;17.90;98.10
49441;DHT22;35317;51.978;6.296;2022-08-19T00:33:26;17.90;98.30
49441;DHT22;35317;51.978;6.296;2022-08-19T00:38:27;17.90;98.40
49441;DHT22;35317;51.978;6.296;2022-08-19T00:43:28;17.80;98.60
49441;DHT22;35317;51.978;6.296;2022-08-19T00:48:29;17.80;98.30
49441;DHT22;35317;51.978;6.296;2022-08-19T00:53:32;17.70;98.50
49441;DHT22;35317;51.978;6.296;2022-08-19T00:58:34;17.70;98.60
49441;DHT22;35317;51.978;6.296;2022-08-19T01:03:35;17.60;98.60
49441;DHT22;35317;51.978;6.296;2022-08-19T01:08:36;17.60;98.60
49441;DHT22;35317;51.978;6.296;2022-08-19T01:13:37;17.50;98.70
49441;DHT22;35317;51.978;6.296;2022-08-19T01:18:41;17.50;98.80
49441;DHT22;35317;51.978;6.296;2022-08-19T01:23:44;17.40;99.00
49441;DHT22;35317;51.978;6.296;2022-08-19T01:28:47;17.40;99.00
49441;DHT22;35317;51.978;6.296;2022-08-19T01:33:51;17.30;99.00
49441;DHT22;35317;51.978;6.296;2022-08-19T01:38:54;17.30;99.10
49441;DHT22;35317;51.978;6.296;2022-08-19T01:43:55;17.20;99.10
49441;DHT22;35317;51.978;6.296;2022-08-19T01:48:56;17.20;99.20
49441;DHT22;35317;51.978;6.296;2022-08-19T01:53:57;17.20;99.20
49441;DHT22;35317;51.978;6.296;2022-08-19T01:59:03;17.10;99.30
49441;DHT22;35317;51.978;6.296;2022-08-19T02:04:05;17.10;99.30
49441;DHT22;35317;51.978;6.296;2022-08-19T02:09:07;17.00;99.30
49441;DHT22;35317;51.978;6.296;2022-08-19T02:14:08;17.00;99.40
49441;DHT22;35317;51.978;6.296;2022-08-19T02:19:10;16.90;99.40
49441;DHT22;35317;51.978;6.296;2022-08-19T02:24:11;16.90;99.40
49441;DHT22;35317;51.978;6.296;2022-08-19T02:29:12;16.90;99.50
49441;DHT22;35317;51.978;6.296;2022-08-19T02:34:13;16.90;99.70
49441;DHT22;35317;51.978;6.296;2022-08-19T02:39:14;17.00;99.80
49441;DHT22;35317;51.978;6.296;2022-08-19T02:44:15;17.00;99.70
49441;DHT22;35317;51.978;6.296;2022-08-19T02:49:16;16.90;99.70
49441;DHT22;35317;51.978;6.296;2022-08-19T02:54:17;16.90;99.70
49441;DHT22;35317;51.978;6.296;2022-08-19T02:59:17;16.90;99.70
49441;DHT22;35317;51.978;6.296;2022-08-19T03:04:19;16.90;99.70
49441;DHT22;35317;51.978;6.296;2022-08-19T03:09:20;16.80;99.70
49441;DHT22;35317;51.978;6.296;2022-08-19T03:14:21;16.80;99.80
49441;DHT22;35317;51.978;6.296;2022-08-19T03:19:22;16.70;99.80
49441;DHT22;35317;51.978;6.296;2022-08-19T03:24:23;16.70;99.90
49441;DHT22;35317;51.978;6.296;2022-08-19T03:29:27;16.60;99.80
49441;DHT22;35317;51.978;6.296;2022-08-19T03:34:31;16.60;99.80
49441;DHT22;35317;51.978;6.296;2022-08-19T03:39:33;16.50;99.70
49441;DHT22;35317;51.978;6.296;2022-08-19T03:44:34;16.50;99.80
49441;DHT22;35317;51.978;6.296;2022-08-19T03:49:37;16.40;99.80
49441;DHT22;35317;51.978;6.296;2022-08-19T03:54:38;16.40;99.90
49441;DHT22;35317;51.978;6.296;2022-08-19T03:59:39;16.30;99.90
49441;DHT22;35317;51.978;6.296;2022-08-19T04:04:42;16.20;99.90
49441;DHT22;35317;51.978;6.296;2022-08-19T04:09:43;16.20;99.90
49441;DHT22;35317;51.978;6.296;2022-08-19T04:14:44;16.20;99.90
49441;DHT22;35317;51.978;6.296;2022-08-19T04:19:45;16.20;99.90
49441;DHT22;35317;51.978;6.296;2022-08-19T04:24:46;16.10;99.90
49441;DHT22;35317;51.978;6.296;2022-08-19T04:29:46;16.20;99.90
49441;DHT22;35317;51.978;6.296;2022-08-19T04:34:48;16.10;99.90
49441;DHT22;35317;51.978;6.296;2022-08-19T04:39:48;16.10;99.90
49441;DHT22;35317;51.978;6.296;2022-08-19T04:45:13;16.10;99.90
49441;DHT22;35317;51.978;6.296;2022-08-19T04:50:15;16.10;99.90
49441;DHT22;35317;51.978;6.296;2022-08-19T04:55:15;16.00;99.90
49441;DHT22;35317;51.978;6.296;2022-08-19T05:00:17;16.00;99.90
49441;DHT22;35317;51.978;6.296;2022-08-19T05:05:18;16.00;99.90
49441;DHT22;35317;51.978;6.296;2022-08-19T05:10:20;16.10;99.90
49441;DHT22;35317;51.978;6.296;2022-08-19T05:15:20;16.10;99.90
49441;DHT22;35317;51.978;6.296;2022-08-19T05:20:22;16.20;99.90
49441;DHT22;35317;51.978;6.296;2022-08-19T05:25:41;16.20;99.90
49441;DHT22;35317;51.978;6.296;2022-08-19T05:30:43;16.20;99.90
49441;DHT22;35317;51.978;6.296;2022-08-19T05:35:45;16.30;99.90
49441;DHT22;35317;51.978;6.296;2022-08-19T05:40:46;16.30;99.90
49441;DHT22;35317;51.978;6.296;2022-08-19T05:45:48;16.30;99.90
49441;DHT22;35317;51.978;6.296;2022-08-19T05:50:50;16.40;99.90
49441;DHT22;35317;51.978;6.296;2022-08-19T05:55:51;16.50;99.90
49441;DHT22;35317;51.978;6.296;2022-08-19T06:00:51;16.60;99.90
49441;DHT22;35317;51.978;6.296;2022-08-19T06:05:55;16.70;99.90
49441;DHT22;35317;51.978;6.296;2022-08-19T06:10:56;16.90;99.90
49441;DHT22;35317;51.978;6.296;2022-08-19T06:15:56;17.00;99.90
49441;DHT22;35317;51.978;6.296;2022-08-19T06:20:57;17.20;99.90
49441;DHT22;35317;51.978;6.296;2022-08-19T06:25:58;17.40;99.90
49441;DHT22;35317;51.978;6.296;2022-08-19T06:30:59;17.50;99.90
49441;DHT22;35317;51.978;6.296;2022-08-19T06:36:02;17.80;99.90
49441;DHT22;35317;51.978;6.296;2022-08-19T06:41:04;18.00;99.90
49441;DHT22;35317;51.978;6.296;2022-08-19T06:46:10;18.30;99.90
49441;DHT22;35317;51.978;6.296;2022-08-19T06:51:17;18.50;99.90
49441;DHT22;35317;51.978;6.296;2022-08-19T06:56:25;18.80;99.90
49441;DHT22;35317;51.978;6.296;2022-08-19T07:01:45;19.00;99.90
49441;DHT22;35317;51.978;6.296;2022-08-19T07:06:48;19.40;99.90
49441;DHT22;35317;51.978;6.296;2022-08-19T07:11:51;19.60;99.90
49441;DHT22;35317;51.978;6.296;2022-08-19T07:16:54;19.80;99.50
49441;DHT22;35317;51.978;6.296;2022-08-19T07:21:56;20.10;99.00
49441;DHT22;35317;51.978;6.296;2022-08-19T07:27:00;20.20;98.50
49441;DHT22;35317;51.978;6.296;2022-08-19T07:32:04;20.30;98.10
49441;DHT22;35317;51.978;6.296;2022-08-19T07:37:06;20.50;97.80
49441;DHT22;35317;51.978;6.296;2022-08-19T07:42:10;20.60;97.40
49441;DHT22;35317;51.978;6.296;2022-08-19T07:47:11;20.80;97.10
49441;DHT22;35317;51.978;6.296;2022-08-19T07:52:13;21.00;96.70
49441;DHT22;35317;51.978;6.296;2022-08-19T07:57:14;21.20;96.20
49441;DHT22;35317;51.978;6.296;2022-08-19T08:02:14;21.40;96.00
49441;DHT22;35317;51.978;6.296;2022-08-19T08:07:16;21.60;95.30
49441;DHT22;35317;51.978;6.296;2022-08-19T08:12:38;21.70;94.90
49441;DHT22;35317;51.978;6.296;2022-08-19T08:17:43;22.00;94.10
49441;DHT22;35317;51.978;6.296;2022-08-19T08:22:46;22.10;93.50
49441;DHT22;35317;51.978;6.296;2022-08-19T08:28:05;22.30;93.10
49441;DHT22;35317;51.978;6.296;2022-08-19T08:33:10;22.40;92.50
49441;DHT22;35317;51.978;6.296;2022-08-19T08:38:11;22.60;91.80
49441;DHT22;35317;51.978;6.296;2022-08-19T08:43:44;22.80;91.20
49441;DHT22;35317;51.978;6.296;2022-08-19T08:53:55;23.10;90.10
49441;DHT22;35317;51.978;6.296;2022-08-19T08:59:03;23.20;89.80
49441;DHT22;35317;51.978;6.296;2022-08-19T09:04:11;23.40;88.30
49441;DHT22;35317;51.978;6.296;2022-08-19T09:09:14;23.60;87.00
49441;DHT22;35317;51.978;6.296;2022-08-19T09:19:59;23.90;83.40
49441;DHT22;35317;51.978;6.296;2022-08-19T09:25:10;23.90;78.80
49441;DHT22;35317;51.978;6.296;2022-08-19T09:30:24;23.90;78.80
49441;DHT22;35317;51.978;6.296;2022-08-19T09:35:29;23.90;78.00
49441;DHT22;35317;51.978;6.296;2022-08-19T09:40:30;24.00;78.10
49441;DHT22;35317;51.978;6.296;2022-08-19T09:45:31;24.20;77.50
49441;DHT22;35317;51.978;6.296;2022-08-19T09:50:32;24.30;75.90
49441;DHT22;35317;51.978;6.296;2022-08-19T09:55:35;24.30;75.30
49441;DHT22;35317;51.978;6.296;2022-08-19T10:00:37;24.50;75.20
49441;DHT22;35317;51.978;6.296;2022-08-19T10:05:38;24.80;73.00
49441;DHT22;35317;51.978;6.296;2022-08-19T10:10:49;25.00;71.60
49441;DHT22;35317;51.978;6.296;2022-08-19T10:15:52;25.20;70.60
49441;DHT22;35317;51.978;6.296;2022-08-19T10:21:11;25.40;69.00
49441;DHT22;35317;51.978;6.296;2022-08-19T10:26:25;25.50;65.70
49441;DHT22;35317;51.978;6.296;2022-08-19T10:31:33;25.60;66.30
49441;DHT22;35317;51.978;6.296;2022-08-19T10:36:36;25.80;65.10
49441;DHT22;35317;51.978;6.296;2022-08-19T10:41:38;26.10;63.30
49441;DHT22;35317;51.978;6.296;2022-08-19T10:46:42;26.30;62.20
49441;DHT22;35317;51.978;6.296;2022-08-19T10:51:45;26.60;61.60
49441;DHT22;35317;51.978;6.296;2022-08-19T10:57:04;26.70;61.20
49441;DHT22;35317;51.978;6.296;2022-08-19T11:02:08;26.90;60.70
49441;DHT22;35317;51.978;6.296;2022-08-19T11:07:10;26.90;63.70
49441;DHT22;35317;51.978;6.296;2022-08-19T11:12:12;26.70;65.80
49441;DHT22;35317;51.978;6.296;2022-08-19T11:17:13;26.70;66.40
49441;DHT22;35317;51.978;6.296;2022-08-19T11:22:14;26.80;65.80
49441;DHT22;35317;51.978;6.296;2022-08-19T11:27:15;26.90;65.60
49441;DHT22;35317;51.978;6.296;2022-08-19T11:32:15;27.00;65.50
49441;DHT22;35317;51.978;6.296;2022-08-19T11:37:16;27.10;65.70
49441;DHT22;35317;51.978;6.296;2022-08-19T11:42:17;27.30;65.10
49441;DHT22;35317;51.978;6.296;2022-08-19T11:47:36;27.40;64.50
49441;DHT22;35317;51.978;6.296;2022-08-19T11:52:38;27.40;63.60
49441;DHT22;35317;51.978;6.296;2022-08-19T11:57:39;27.30;62.90
49441;DHT22;35317;51.978;6.296;2022-08-19T12:02:41;27.30;62.30
49441;DHT22;35317;51.978;6.296;2022-08-19T12:07:42;27.40;61.00
49441;DHT22;35317;51.978;6.296;2022-08-19T12:12:44;27.70;60.00
49441;DHT22;35317;51.978;6.296;2022-08-19T12:17:46;27.90;58.00
49441;DHT22;35317;51.978;6.296;2022-08-19T12:22:46;28.00;56.50
49441;DHT22;35317;51.978;6.296;2022-08-19T12:27:48;28.00;55.00
49441;DHT22;35317;51.978;6.296;2022-08-19T12:32:51;28.10;54.90
49441;DHT22;35317;51.978;6.296;2022-08-19T12:37:52;28.40;55.70
49441;DHT22;35317;51.978;6.296;2022-08-19T12:42:53;28.70;56.00
49441;DHT22;35317;51.978;6.296;2022-08-19T12:47:54;29.00;55.80
49441;DHT22;35317;51.978;6.296;2022-08-19T12:52:56;29.40;55.20
49441;DHT22;35317;51.978;6.296;2022-08-19T12:57:57;29.40;54.30
49441;DHT22;35317;51.978;6.296;2022-08-19T13:02:59;29.60;54.40
49441;DHT22;35317;51.978;6.296;2022-08-19T13:08:00;29.80;54.00
49441;DHT22;35317;51.978;6.296;2022-08-19T13:13:07;29.90;53.20
49441;DHT22;35317;51.978;6.296;2022-08-19T13:18:11;30.20;53.70
49441;DHT22;35317;51.978;6.296;2022-08-19T13:23:12;30.50;53.00
49441;DHT22;35317;51.978;6.296;2022-08-19T13:28:13;30.70;52.60
49441;DHT22;35317;51.978;6.296;2022-08-19T13:33:14;30.80;52.90
49441;DHT22;35317;51.978;6.296;2022-08-19T13:38:18;31.00;51.90
49441;DHT22;35317;51.978;6.296;2022-08-19T13:43:22;31.20;51.40
49441;DHT22;35317;51.978;6.296;2022-08-19T13:48:25;31.30;51.40
49441;DHT22;35317;51.978;6.296;2022-08-19T13:53:27;31.50;51.10
49441;DHT22;35317;51.978;6.296;2022-08-19T13:58:28;31.70;50.30
49441;DHT22;35317;51.978;6.296;2022-08-19T14:03:31;31.80;49.70
49441;DHT22;35317;51.978;6.296;2022-08-19T14:08:32;31.80;50.20
49441;DHT22;35317;51.978;6.296;2022-08-19T14:13:33;31.60;50.80
49441;DHT22;35317;51.978;6.296;2022-08-19T14:18:34;31.50;50.60
49441;DHT22;35317;51.978;6.296;2022-08-19T14:23:35;31.50;50.90
49441;DHT22;35317;51.978;6.296;2022-08-19T14:28:36;31.60;51.60
49441;DHT22;35317;51.978;6.296;2022-08-19T14:33:38;31.70;51.20
49441;DHT22;35317;51.978;6.296;2022-08-19T14:38:39;31.90;50.80
49441;DHT22;35317;51.978;6.296;2022-08-19T14:43:40;32.10;50.60
49441;DHT22;35317;51.978;6.296;2022-08-19T14:48:42;32.10;50.30
49441;DHT22;35317;51.978;6.296;2022-08-19T14:53:43;32.10;50.20
49441;DHT22;35317;51.978;6.296;2022-08-19T14:58:44;32.00;49.70
49441;DHT22;35317;51.978;6.296;2022-08-19T15:03:45;31.50;50.10
49441;DHT22;35317;51.978;6.296;2022-08-19T15:08:46;31.10;51.20
49441;DHT22;35317;51.978;6.296;2022-08-19T15:13:47;30.70;52.50
49441;DHT22;35317;51.978;6.296;2022-08-19T15:18:54;30.00;54.10
49441;DHT22;35317;51.978;6.296;2022-08-19T15:23:57;29.50;56.30
49441;DHT22;35317;51.978;6.296;2022-08-19T15:28:59;29.00;57.70
49441;DHT22;35317;51.978;6.296;2022-08-19T15:34:02;28.80;59.00
49441;DHT22;35317;51.978;6.296;2022-08-19T15:39:04;28.70;59.40
49441;DHT22;35317;51.978;6.296;2022-08-19T15:44:08;28.40;60.20
49441;DHT22;35317;51.978;6.296;2022-08-19T15:49:12;28.10;61.20
49441;DHT22;35317;51.978;6.296;2022-08-19T15:54:19;27.80;62.50
49441;DHT22;35317;51.978;6.296;2022-08-19T15:59:21;27.50;63.10
49441;DHT22;35317;51.978;6.296;2022-08-19T16:04:40;27.20;63.90
49441;DHT22;35317;51.978;6.296;2022-08-19T16:09:59;27.00;65.20
49441;DHT22;35317;51.978;6.296;2022-08-19T16:15:00;26.90;66.30
49441;DHT22;35317;51.978;6.296;2022-08-19T16:20:03;26.60;67.10
49441;DHT22;35317;51.978;6.296;2022-08-19T16:25:08;26.40;68.00
49441;DHT22;35317;51.978;6.296;2022-08-19T16:30:09;26.20;69.10
49441;DHT22;35317;51.978;6.296;2022-08-19T16:35:11;26.00;70.00
49441;DHT22;35317;51.978;6.296;2022-08-19T16:40:12;25.90;70.80
49441;DHT22;35317;51.978;6.296;2022-08-19T16:45:12;25.60;71.40
49441;DHT22;35317;51.978;6.296;2022-08-19T16:50:13;25.40;72.40
49441;DHT22;35317;51.978;6.296;2022-08-19T16:55:14;25.20;73.20
49441;DHT22;35317;51.978;6.296;2022-08-19T17:00:16;25.10;73.70
49441;DHT22;35317;51.978;6.296;2022-08-19T17:05:17;24.90;74.50
49441;DHT22;35317;51.978;6.296;2022-08-19T17:10:19;24.80;75.10
49441;DHT22;35317;51.978;6.296;2022-08-19T17:15:19;24.80;75.70
49441;DHT22;35317;51.978;6.296;2022-08-19T17:20:20;24.70;76.30
49441;DHT22;35317;51.978;6.296;2022-08-19T17:25:25;24.70;76.50
49441;DHT22;35317;51.978;6.296;2022-08-19T17:30:27;24.60;76.80
49441;DHT22;35317;51.978;6.296;2022-08-19T17:35:28;24.50;77.20
49441;DHT22;35317;51.978;6.296;2022-08-19T17:40:29;24.40;77.80
49441;DHT22;35317;51.978;6.296;2022-08-19T17:45:30;24.20;78.10
49441;DHT22;35317;51.978;6.296;2022-08-19T17:50:32;24.10;78.40
49441;DHT22;35317;51.978;6.296;2022-08-19T17:55:34;24.00;78.70
49441;DHT22;35317;51.978;6.296;2022-08-19T18:00:35;23.90;78.90
49441;DHT22;35317;51.978;6.296;2022-08-19T18:05:41;23.90;79.20
49441;DHT22;35317;51.978;6.296;2022-08-19T18:10:42;23.80;79.40
49441;DHT22;35317;51.978;6.296;2022-08-19T18:15:43;23.80;79.40
49441;DHT22;35317;51.978;6.296;2022-08-19T18:21:00;23.80;79.50
49441;DHT22;35317;51.978;6.296;2022-08-19T18:26:02;23.80;79.80
49441;DHT22;35317;51.978;6.296;2022-08-19T18:31:04;23.80;80.30
49441;DHT22;35317;51.978;6.296;2022-08-19T18:36:06;23.70;80.60
49441;DHT22;35317;51.978;6.296;2022-08-19T18:41:07;23.60;81.10
49441;DHT22;35317;51.978;6.296;2022-08-19T18:46:27;23.50;81.60
49441;DHT22;35317;51.978;6.296;2022-08-19T18:51:46;23.40;82.00
49441;DHT22;35317;51.978;6.296;2022-08-19T18:56:47;23.30;82.40
49441;DHT22;35317;51.978;6.296;2022-08-19T19:01:48;23.10;83.10
49441;DHT22;35317;51.978;6.296;2022-08-19T19:06:52;23.10;83.60
49441;DHT22;35317;51.978;6.296;2022-08-19T19:11:55;23.00;83.80
49441;DHT22;35317;51.978;6.296;2022-08-19T19:17:00;23.00;84.40
49441;DHT22;35317;51.978;6.296;2022-08-19T19:22:02;23.00;84.50
49441;DHT22;35317;51.978;6.296;2022-08-19T19:27:05;23.00;84.70
49441;DHT22;35317;51.978;6.296;2022-08-19T19:32:14;23.00;85.10
49441;DHT22;35317;51.978;6.296;2022-08-19T19:37:17;23.00;85.20
49441;DHT22;35317;51.978;6.296;2022-08-19T19:42:20;23.00;85.40
49441;DHT22;35317;51.978;6.296;2022-08-19T19:47:23;23.00;85.50
49441;DHT22;35317;51.978;6.296;2022-08-19T19:52:24;23.10;85.50
49441;DHT22;35317;51.978;6.296;2022-08-19T19:57:26;23.00;85.50
49441;DHT22;35317;51.978;6.296;2022-08-19T20:02:26;23.00;85.60
49441;DHT22;35317;51.978;6.296;2022-08-19T20:07:27;23.00;85.80
49441;DHT22;35317;51.978;6.296;2022-08-19T20:12:46;23.00;85.90
49441;DHT22;35317;51.978;6.296;2022-08-19T20:17:47;22.90;86.10
49441;DHT22;35317;51.978;6.296;2022-08-19T20:22:48;23.00;86.30
49441;DHT22;35317;51.978;6.296;2022-08-19T20:27:50;23.00;86.70
49441;DHT22;35317;51.978;6.296;2022-08-19T20:32:50;22.90;86.90
49441;DHT22;35317;51.978;6.296;2022-08-19T20:37:51;22.90;87.60
49441;DHT22;35317;51.978;6.296;2022-08-19T20:42:54;22.80;88.00
49441;DHT22;35317;51.978;6.296;2022-08-19T20:47:56;22.80;88.50
49441;DHT22;35317;51.978;6.296;2022-08-19T20:52:57;22.80;89.10
49441;DHT22;35317;51.978;6.296;2022-08-19T20:57:58;22.80;90.00
49441;DHT22;35317;51.978;6.296;2022-08-19T21:02:58;22.70;90.20
49441;DHT22;35317;51.978;6.296;2022-08-19T21:07:59;22.70;90.40
49441;DHT22;35317;51.978;6.296;2022-08-19T21:13:00;22.70;90.60
49441;DHT22;35317;51.978;6.296;2022-08-19T21:18:03;22.60;90.90
49441;DHT22;35317;51.978;6.296;2022-08-19T21:23:09;22.60;91.10
49441;DHT22;35317;51.978;6.296;2022-08-19T21:28:13;22.50;91.40
49441;DHT22;35317;51.978;6.296;2022-08-19T21:33:14;22.40;91.50
49441;DHT22;35317;51.978;6.296;2022-08-19T21:38:15;22.40;91.60
49441;DHT22;35317;51.978;6.296;2022-08-19T21:43:16;22.30;91.70
49441;DHT22;35317;51.978;6.296;2022-08-19T21:48:17;22.30;91.80
49441;DHT22;35317;51.978;6.296;2022-08-19T21:53:19;22.20;92.00
49441;DHT22;35317;51.978;6.296;2022-08-19T21:58:21;22.10;92.20
49441;DHT22;35317;51.978;6.296;2022-08-19T22:03:22;22.00;92.40
49441;DHT22;35317;51.978;6.296;2022-08-19T22:08:44;22.00;92.50
49441;DHT22;35317;51.978;6.296;2022-08-19T22:13:47;21.90;92.60
49441;DHT22;35317;51.978;6.296;2022-08-19T22:18:53;21.80;92.90
49441;DHT22;35317;51.978;6.296;2022-08-19T22:24:07;21.70;92.90
49441;DHT22;35317;51.978;6.296;2022-08-19T22:29:24;21.70;93.10
49441;DHT22;35317;51.978;6.296;2022-08-19T22:34:26;21.60;93.20
49441;DHT22;35317;51.978;6.296;2022-08-19T22:39:26;21.50;93.40
49441;DHT22;35317;51.978;6.296;2022-08-19T22:44:27;21.50;93.50
49441;DHT22;35317;51.978;6.296;2022-08-19T22:49:28;21.50;93.60
49441;DHT22;35317;51.978;6.296;2022-08-19T22:54:29;21.50;93.70
49441;DHT22;35317;51.978;6.296;2022-08-19T22:59:30;21.50;93.80
49441;DHT22;35317;51.978;6.296;2022-08-19T23:04:31;21.40;93.90
49441;DHT22;35317;51.978;6.296;2022-08-19T23:09:32;21.40;94.10
49441;DHT22;35317;51.978;6.296;2022-08-19T23:14:33;21.40;94.10
49441;DHT22;35317;51.978;6.296;2022-08-19T23:19:36;21.30;94.30
49441;DHT22;35317;51.978;6.296;2022-08-19T23:24:37;21.30;94.40
49441;DHT22;35317;51.978;6.296;2022-08-19T23:29:38;21.30;94.60
49441;DHT22;35317;51.978;6.296;2022-08-19T23:34:58;21.30;94.70
49441;DHT22;35317;51.978;6.296;2022-08-19T23:39:58;21.20;94.80
49441;DHT22;35317;51.978;6.296;2022-08-19T23:45:00;21.20;95.00
49441;DHT22;35317;51.978;6.296;2022-08-19T23:50:03;21.20;95.00
49441;DHT22;35317;51.978;6.296;2022-08-19T23:55:06;21.20;95.10
